x

South Brooks (46132) Wave Buoy

10:00am - Sun 23rd Nov 2014 All times are PST. -8 hours from GMT.

  • Sig Wave height 16.1ft
  • Peak Period 13s
  • Wind
    18mph, 25mph gusts
  • Sea Temp 53°f
  • Air Temp 52°f
  • Sea Pressure 1017.4mb
  • South Brooks
  • South Brooks

More Historic Weather Station data

Upgrade to MSW Pro to gain access to the past 30 days of data for over 8000 Wavebouys and Weather Stations around the globe.

Join Pro

Comparision Forecast

View Surf forecast
   
Sun 11/23 10:00am 16ft 13s 18 25 mph 1017.4mb 53f 52f
9:00am 15.5ft 11s 20 25 mph 1016.1mb 53f 51f
8:00am 16ft 12s 22 29 mph 1015.2mb 53f 51f
7:00am 17ft 11s 25 31 mph 1014.2mb 53f 52f
6:00am 16.5ft 12s 20 25 mph 1013.3mb 53f 51f
5:00am 14.5ft 11s 16 20 mph 1012.8mb 53f 50f
4:00am 15.5ft 14s 18 22 mph 1011.8mb 53f 51f
3:00am 15ft 14s 22 27 mph 1010.8mb 53f 53f
2:00am 14ft 14s 20 25 mph 1010.4mb 53f 52f
1:00am 13ft 12s 20 36 mph 1010mb 53f 52f
12:00am 12.5ft 14s 20 25 mph 1009.2mb 53f 49f
Sat 11/22 11:00pm 13ft 14s 31 36 mph 1008.4mb 53f 51f
10:00pm 12ft 13s 25 31 mph 1010.2mb 53f 51f
9:00pm 12ft 14s 22 27 mph 1010.9mb 53f 51f
8:00pm 12ft 14s 18 22 mph 1011.8mb 53f 53f
7:00pm 13ft 14s 16 18 mph 1012.2mb 53f 53f
6:00pm 12ft 14s 13 18 mph 1012.1mb 53f 53f
5:00pm 12ft 13s 16 18 mph 1011.9mb 53f 52f
4:00pm 13ft 14s 13 18 mph 1011.5mb 54f 52f
3:00pm 13ft 14s 11 16 mph 1010.8mb 54f 52f
2:00pm 13ft 13s 7 11 mph 1010.5mb 54f 51f
1:00pm 13ft 14s 13 18 mph 1009.6mb 54f 51f
12:00pm 13ft 14s 13 20 mph 1009mb 54f 51f
11:00am 14ft 15s 13 16 mph 1008.3mb 54f 51f
10:00am 14ft 15s 9 18 mph 1007.4mb 54f 51f
9:00am 12.5ft 14s 9 13 mph 1006.5mb 54f 51f
8:00am 14ft 16s 11 16 mph 1005.3mb 54f 51f
7:00am 15ft 14s 11 13 mph 1004.4mb 53f 50f
6:00am 15ft 14s 16 20 mph 1003.1mb 53f 49f
5:00am 15.5ft 15s 16 20 mph 1002mb 53f 50f
4:00am 16.5ft 16s 20 25 mph 1001mb 54f 49f
3:00am 14.5ft 16s 13 18 mph 1000.2mb 54f 50f
2:00am 12.5ft 15s 13 20 mph 999.2mb 54f 49f
1:00am 15ft 15s 18 25 mph 998.4mb 54f 49f
12:00am 12.5ft 15s 18 22 mph 997.6mb 54f 50f
Fri 11/21 11:00pm 11.5ft 16s 9 16 mph 997.2mb 54f 51f
10:00pm 11.5ft 16s 13 18 mph 996.7mb 54f 49f
9:00pm 12.5ft 17s 20 29 mph 996mb 54f 50f
8:00pm 13ft 17s 20 22 mph 995.3mb 54f 51f
7:00pm 12ft 9s 22 27 mph 994.7mb 54f 51f
6:00pm 12.5ft 9s 18 25 mph 994.2mb 54f 51f
5:00pm 12.5ft 10s 22 29 mph 993.3mb 54f 51f
4:00pm 12ft 10s 22 29 mph 992.9mb 54f 52f
3:00pm 12ft 9s 20 27 mph 992.5mb 54f 51f
2:00pm 11ft 10s 20 25 mph 992.1mb 54f 52f
1:00pm 10ft 8s 20 25 mph 991.9mb 54f 52f
12:00pm 11ft 8s 20 25 mph 992mb 54f 53f
11:00am 11ft 9s 18 22 mph 992.2mb 54f 53f
10:00am 12.5ft 8s 20 25 mph 991.7mb 54f 54f
9:00am 13ft 8s 22 29 mph 991.4mb 54f 54f
8:00am 12ft 7s 31 40 mph 992.7mb 54f 51f
7:00am 11.5ft 6s 34 47 mph 993.9mb 55f 52f
6:00am 10.5ft 7s 31 40 mph 995.9mb 55f 52f
5:00am 10.5ft 12s 31 38 mph 997.6mb 55f 52f
4:00am 10ft 11s 29 40 mph 999.2mb 55f 53f
3:00am 10ft 12s 27 34 mph 1000.7mb 55f 53f
2:00am 10.5ft 13s 29 36 mph 1002.1mb 55f 53f
1:00am 9.5ft 12s 29 36 mph 1003.2mb 55f 53f
12:00am 9.5ft 13s 27 34 mph 1004.2mb 55f 53f
Thu 11/20 11:00pm 10ft 13s 25 31 mph 1005.2mb 55f 53f
10:00pm 10ft 13s 22 27 mph 1006.1mb 55f 53f
9:00pm 11ft 8s 18 25 mph 1007mb 55f 53f
8:00pm 11ft 9s 16 20 mph 1007.7mb 55f 53f
7:00pm 10.5ft 10s 13 18 mph 1008.4mb 55f 54f
6:00pm 12ft 9s 16 18 mph 1008.2mb 55f 54f
5:00pm 11.5ft 10s 18 20 mph 1008mb 55f 54f
4:00pm 12.5ft 14s 13 18 mph 1008.2mb 55f 52f
3:00pm 12.5ft 9s 20 25 mph 1007.3mb 55f 53f
2:00pm 12.5ft 12s 22 31 mph 1006.9mb 55f 53f
1:00pm 13.5ft 10s 27 31 mph 1006.4mb 55f 52f
12:00pm 12.5ft 10s 29 36 mph 1005.7mb 55f 52f
11:00am 13ft 9s 27 34 mph 1005.1mb 55f 52f
10:00am 12.5ft 10s 25 29 mph 1004.8mb 55f 53f
9:00am 11.5ft 14s 25 31 mph 1004.3mb 55f 53f
8:00am 11.5ft 14s 27 31 mph 1003.7mb 55f 52f
7:00am 12.5ft 14s 27 36 mph 1003.2mb 55f 53f
6:00am 12ft 8s 22 29 mph 1002.9mb 55f 53f
5:00am 12.5ft 10s 25 31 mph 1002.5mb 55f 53f
4:00am 13ft 9s 20 27 mph 1002.3mb 55f 54f
3:00am 14ft 14s 34 40 mph 1001.8mb 55f 51f
2:00am 12.5ft 9s 34 43 mph 1001.5mb 55f 53f
1:00am 12ft 10s 34 38 mph 1001.7mb 55f 54f
12:00am 12ft 11s 31 40 mph 1002.1mb 55f 55f
Wed 11/19 11:00pm 11.5ft 10s 29 36 mph 1002.3mb 55f 55f
10:00pm 12ft 11s 29 36 mph 1002.6mb 55f 55f
9:00pm 11ft 12s 29 36 mph 1002.8mb 55f 55f
8:00pm 11ft 12s 29 36 mph 1003.1mb 55f 55f